sensor_id;sensor_type;location;lat;lon;timestamp;temperature;humidity
68177;DHT22;56478;50.982;7.032;2023-04-29T00:01:18;13.70;81.85
68177;DHT22;56478;50.982;7.032;2023-04-29T00:03:44;13.74;81.20
68177;DHT22;56478;50.982;7.032;2023-04-29T00:06:10;13.74;81.78
68177;DHT22;56478;50.982;7.032;2023-04-29T00:08:36;13.75;80.56
68177;DHT22;56478;50.982;7.032;2023-04-29T00:11:02;13.68;80.27
68177;DHT22;56478;50.982;7.032;2023-04-29T00:13:28;13.68;79.97
68177;DHT22;56478;50.982;7.032;2023-04-29T00:15:54;13.70;79.80
68177;DHT22;56478;50.982;7.032;2023-04-29T00:18:20;13.63;79.70
68177;DHT22;56478;50.982;7.032;2023-04-29T00:20:46;13.68;79.87
68177;DHT22;56478;50.982;7.032;2023-04-29T00:23:12;13.67;79.92
68177;DHT22;56478;50.982;7.032;2023-04-29T00:25:37;13.70;79.18
68177;DHT22;56478;50.982;7.032;2023-04-29T00:28:06;13.63;79.07
68177;DHT22;56478;50.982;7.032;2023-04-29T00:30:32;13.64;78.66
68177;DHT22;56478;50.982;7.032;2023-04-29T00:33:01;13.65;78.40
68177;DHT22;56478;50.982;7.032;2023-04-29T00:35:27;13.65;78.28
68177;DHT22;56478;50.982;7.032;2023-04-29T00:37:53;13.57;78.87
68177;DHT22;56478;50.982;7.032;2023-04-29T00:40:19;13.58;78.38
68177;DHT22;56478;50.982;7.032;2023-04-29T00:42:45;13.55;78.47
68177;DHT22;56478;50.982;7.032;2023-04-29T00:45:11;13.61;78.57
68177;DHT22;56478;50.982;7.032;2023-04-29T00:47:40;13.53;78.47
68177;DHT22;56478;50.982;7.032;2023-04-29T00:50:08;13.54;78.70
68177;DHT22;56478;50.982;7.032;2023-04-29T00:52:34;13.50;78.16
68177;DHT22;56478;50.982;7.032;2023-04-29T00:55:00;13.53;78.00
68177;DHT22;56478;50.982;7.032;2023-04-29T00:57:27;13.48;77.82
68177;DHT22;56478;50.982;7.032;2023-04-29T00:59:56;13.50;77.86
68177;DHT22;56478;50.982;7.032;2023-04-29T01:02:23;13.54;77.43
68177;DHT22;56478;50.982;7.032;2023-04-29T01:04:50;13.50;77.27
68177;DHT22;56478;50.982;7.032;2023-04-29T01:07:18;13.47;77.14
68177;DHT22;56478;50.982;7.032;2023-04-29T01:12:35;13.53;77.26
68177;DHT22;56478;50.982;7.032;2023-04-29T01:15:11;13.40;77.62
68177;DHT22;56478;50.982;7.032;2023-04-29T01:18:07;13.37;77.88
68177;DHT22;56478;50.982;7.032;2023-04-29T01:20:35;13.35;77.84
68177;DHT22;56478;50.982;7.032;2023-04-29T01:23:02;13.35;78.37
68177;DHT22;56478;50.982;7.032;2023-04-29T01:25:30;13.43;78.49
68177;DHT22;56478;50.982;7.032;2023-04-29T01:28:12;13.36;78.68
68177;DHT22;56478;50.982;7.032;2023-04-29T01:36:30;13.33;78.82
68177;DHT22;56478;50.982;7.032;2023-04-29T01:39:20;13.26;78.63
68177;DHT22;56478;50.982;7.032;2023-04-29T01:41:56;13.20;79.44
68177;DHT22;56478;50.982;7.032;2023-04-29T01:44:27;13.12;79.15
68177;DHT22;56478;50.982;7.032;2023-04-29T01:46:54;13.15;79.19
68177;DHT22;56478;50.982;7.032;2023-04-29T01:49:23;13.02;79.89
68177;DHT22;56478;50.982;7.032;2023-04-29T01:51:49;13.16;79.10
68177;DHT22;56478;50.982;7.032;2023-04-29T01:54:15;13.08;79.16
68177;DHT22;56478;50.982;7.032;2023-04-29T01:56:43;12.94;79.69
68177;DHT22;56478;50.982;7.032;2023-04-29T01:59:09;12.95;80.30
68177;DHT22;56478;50.982;7.032;2023-04-29T02:01:36;12.96;79.57
68177;DHT22;56478;50.982;7.032;2023-04-29T02:04:02;12.95;79.59
68177;DHT22;56478;50.982;7.032;2023-04-29T02:06:28;12.92;79.60
68177;DHT22;56478;50.982;7.032;2023-04-29T02:08:56;12.89;80.26
68177;DHT22;56478;50.982;7.032;2023-04-29T02:11:23;12.85;80.28
68177;DHT22;56478;50.982;7.032;2023-04-29T02:13:49;12.85;80.12
68177;DHT22;56478;50.982;7.032;2023-04-29T02:16:15;12.87;80.29
68177;DHT22;56478;50.982;7.032;2023-04-29T02:18:41;12.94;80.10
68177;DHT22;56478;50.982;7.032;2023-04-29T02:21:09;12.75;80.74
68177;DHT22;56478;50.982;7.032;2023-04-29T02:23:38;12.75;81.39
68177;DHT22;56478;50.982;7.032;2023-04-29T02:26:04;12.71;82.11
68177;DHT22;56478;50.982;7.032;2023-04-29T02:28:32;12.68;81.87
68177;DHT22;56478;50.982;7.032;2023-04-29T02:30:59;12.67;82.51
68177;DHT22;56478;50.982;7.032;2023-04-29T02:33:24;12.67;83.02
68177;DHT22;56478;50.982;7.032;2023-04-29T02:35:50;12.68;82.37
68177;DHT22;56478;50.982;7.032;2023-04-29T02:38:16;12.63;83.33
68177;DHT22;56478;50.982;7.032;2023-04-29T02:40:43;12.57;83.60
68177;DHT22;56478;50.982;7.032;2023-04-29T02:43:10;12.54;83.44
68177;DHT22;56478;50.982;7.032;2023-04-29T02:45:37;12.43;83.75
68177;DHT22;56478;50.982;7.032;2023-04-29T02:48:03;12.42;83.66
68177;DHT22;56478;50.982;7.032;2023-04-29T02:50:29;12.46;83.74
68177;DHT22;56478;50.982;7.032;2023-04-29T02:52:55;12.46;84.00
68177;DHT22;56478;50.982;7.032;2023-04-29T02:55:22;12.44;84.14
68177;DHT22;56478;50.982;7.032;2023-04-29T02:57:48;12.39;84.44
68177;DHT22;56478;50.982;7.032;2023-04-29T03:00:14;12.47;84.08
68177;DHT22;56478;50.982;7.032;2023-04-29T03:02:40;12.33;84.39
68177;DHT22;56478;50.982;7.032;2023-04-29T03:05:06;12.29;84.83
68177;DHT22;56478;50.982;7.032;2023-04-29T03:07:32;12.32;84.68
68177;DHT22;56478;50.982;7.032;2023-04-29T03:09:57;12.39;84.86
68177;DHT22;56478;50.982;7.032;2023-04-29T03:12:23;12.37;85.00
68177;DHT22;56478;50.982;7.032;2023-04-29T03:14:49;12.34;84.75
68177;DHT22;56478;50.982;7.032;2023-04-29T03:17:16;12.21;85.02
68177;DHT22;56478;50.982;7.032;2023-04-29T03:19:43;12.15;85.22
68177;DHT22;56478;50.982;7.032;2023-04-29T03:22:08;12.11;85.31
68177;DHT22;56478;50.982;7.032;2023-04-29T03:24:36;12.15;85.29
68177;DHT22;56478;50.982;7.032;2023-04-29T03:27:02;12.11;85.54
68177;DHT22;56478;50.982;7.032;2023-04-29T03:29:29;12.09;85.56
68177;DHT22;56478;50.982;7.032;2023-04-29T03:31:57;12.15;85.67
68177;DHT22;56478;50.982;7.032;2023-04-29T03:34:23;12.11;86.04
68177;DHT22;56478;50.982;7.032;2023-04-29T03:36:49;12.06;86.17
68177;DHT22;56478;50.982;7.032;2023-04-29T03:39:16;12.09;86.23
68177;DHT22;56478;50.982;7.032;2023-04-29T03:41:42;12.15;86.17
68177;DHT22;56478;50.982;7.032;2023-04-29T03:44:08;12.15;86.19
68177;DHT22;56478;50.982;7.032;2023-04-29T03:46:34;12.15;86.05
68177;DHT22;56478;50.982;7.032;2023-04-29T03:49:00;12.14;85.49
68177;DHT22;56478;50.982;7.032;2023-04-29T03:51:26;11.97;85.99
68177;DHT22;56478;50.982;7.032;2023-04-29T03:53:53;12.02;86.17
68177;DHT22;56478;50.982;7.032;2023-04-29T03:56:21;12.01;85.48
68177;DHT22;56478;50.982;7.032;2023-04-29T03:58:47;11.92;85.74
68177;DHT22;56478;50.982;7.032;2023-04-29T04:01:13;11.89;85.40
68177;DHT22;56478;50.982;7.032;2023-04-29T04:03:39;11.81;85.40
68177;DHT22;56478;50.982;7.032;2023-04-29T04:06:07;11.80;85.14
68177;DHT22;56478;50.982;7.032;2023-04-29T04:08:33;11.77;85.12
68177;DHT22;56478;50.982;7.032;2023-04-29T04:10:59;11.69;85.26
68177;DHT22;56478;50.982;7.032;2023-04-29T04:13:31;11.71;84.83
68177;DHT22;56478;50.982;7.032;2023-04-29T04:15:57;11.78;84.77
68177;DHT22;56478;50.982;7.032;2023-04-29T04:18:23;11.69;85.47
68177;DHT22;56478;50.982;7.032;2023-04-29T04:20:51;11.71;85.08
68177;DHT22;56478;50.982;7.032;2023-04-29T04:23:17;11.75;85.41
68177;DHT22;56478;50.982;7.032;2023-04-29T04:25:46;11.59;85.43
68177;DHT22;56478;50.982;7.032;2023-04-29T04:28:13;11.73;85.08
68177;DHT22;56478;50.982;7.032;2023-04-29T04:30:39;11.67;85.47
68177;DHT22;56478;50.982;7.032;2023-04-29T04:33:05;11.73;84.68
68177;DHT22;56478;50.982;7.032;2023-04-29T04:35:31;11.64;85.45
68177;DHT22;56478;50.982;7.032;2023-04-29T04:37:56;11.59;85.38
68177;DHT22;56478;50.982;7.032;2023-04-29T04:40:23;11.67;85.49
68177;DHT22;56478;50.982;7.032;2023-04-29T04:42:49;11.73;85.18
68177;DHT22;56478;50.982;7.032;2023-04-29T04:45:14;11.70;85.21
68177;DHT22;56478;50.982;7.032;2023-04-29T04:47:40;11.75;84.68
68177;DHT22;56478;50.982;7.032;2023-04-29T04:50:07;11.64;85.16
68177;DHT22;56478;50.982;7.032;2023-04-29T04:52:33;11.70;84.57
68177;DHT22;56478;50.982;7.032;2023-04-29T04:54:59;11.69;84.72
68177;DHT22;56478;50.982;7.032;2023-04-29T04:57:27;11.63;85.21
68177;DHT22;56478;50.982;7.032;2023-04-29T04:59:52;11.64;85.24
68177;DHT22;56478;50.982;7.032;2023-04-29T05:02:18;11.64;85.38
68177;DHT22;56478;50.982;7.032;2023-04-29T05:04:44;11.62;84.90
68177;DHT22;56478;50.982;7.032;2023-04-29T05:07:10;11.60;84.93
68177;DHT22;56478;50.982;7.032;2023-04-29T05:09:35;11.49;85.23
68177;DHT22;56478;50.982;7.032;2023-04-29T05:12:01;11.57;85.09
68177;DHT22;56478;50.982;7.032;2023-04-29T05:14:27;11.49;85.24
68177;DHT22;56478;50.982;7.032;2023-04-29T05:16:57;11.54;85.18
68177;DHT22;56478;50.982;7.032;2023-04-29T05:19:23;11.54;85.45
68177;DHT22;56478;50.982;7.032;2023-04-29T05:21:49;11.56;84.88
68177;DHT22;56478;50.982;7.032;2023-04-29T05:24:16;11.53;85.24
68177;DHT22;56478;50.982;7.032;2023-04-29T05:26:42;11.64;85.14
68177;DHT22;56478;50.982;7.032;2023-04-29T05:29:09;11.44;85.50
68177;DHT22;56478;50.982;7.032;2023-04-29T05:31:36;11.63;84.22
68177;DHT22;56478;50.982;7.032;2023-04-29T05:34:03;11.57;84.20
68177;DHT22;56478;50.982;7.032;2023-04-29T05:36:29;11.56;83.87
68177;DHT22;56478;50.982;7.032;2023-04-29T05:38:55;11.54;84.13
68177;DHT22;56478;50.982;7.032;2023-04-29T05:41:20;11.43;85.13
68177;DHT22;56478;50.982;7.032;2023-04-29T05:43:48;11.42;84.44
68177;DHT22;56478;50.982;7.032;2023-04-29T05:46:14;11.47;84.99
68177;DHT22;56478;50.982;7.032;2023-04-29T05:48:40;11.57;84.51
68177;DHT22;56478;50.982;7.032;2023-04-29T05:51:06;11.62;84.01
68177;DHT22;56478;50.982;7.032;2023-04-29T05:53:32;11.64;84.32
68177;DHT22;56478;50.982;7.032;2023-04-29T05:55:58;11.64;84.09
68177;DHT22;56478;50.982;7.032;2023-04-29T05:58:24;11.64;84.13
68177;DHT22;56478;50.982;7.032;2023-04-29T06:00:50;11.67;84.13
68177;DHT22;56478;50.982;7.032;2023-04-29T06:03:16;11.62;83.78
68177;DHT22;56478;50.982;7.032;2023-04-29T06:05:42;11.63;83.38
68177;DHT22;56478;50.982;7.032;2023-04-29T06:08:08;11.54;84.30
68177;DHT22;56478;50.982;7.032;2023-04-29T06:10:35;11.54;84.25
68177;DHT22;56478;50.982;7.032;2023-04-29T06:13:01;11.66;83.58
68177;DHT22;56478;50.982;7.032;2023-04-29T06:15:27;11.57;85.13
68177;DHT22;56478;50.982;7.032;2023-04-29T06:17:53;11.59;84.53
68177;DHT22;56478;50.982;7.032;2023-04-29T06:20:19;11.60;84.64
68177;DHT22;56478;50.982;7.032;2023-04-29T06:22:44;11.66;84.56
68177;DHT22;56478;50.982;7.032;2023-04-29T06:25:10;11.74;84.89
68177;DHT22;56478;50.982;7.032;2023-04-29T06:27:36;11.71;84.45
68177;DHT22;56478;50.982;7.032;2023-04-29T06:30:02;11.77;84.40
68177;DHT22;56478;50.982;7.032;2023-04-29T06:32:28;11.84;84.30
68177;DHT22;56478;50.982;7.032;2023-04-29T06:34:53;11.87;83.93
68177;DHT22;56478;50.982;7.032;2023-04-29T06:37:19;11.87;83.25
68177;DHT22;56478;50.982;7.032;2023-04-29T06:39:45;11.94;83.34
68177;DHT22;56478;50.982;7.032;2023-04-29T06:42:11;12.02;82.98
68177;DHT22;56478;50.982;7.032;2023-04-29T06:44:37;12.09;83.06
68177;DHT22;56478;50.982;7.032;2023-04-29T06:47:03;12.11;82.49
68177;DHT22;56478;50.982;7.032;2023-04-29T06:49:29;12.09;82.78
68177;DHT22;56478;50.982;7.032;2023-04-29T06:51:54;12.09;82.24
68177;DHT22;56478;50.982;7.032;2023-04-29T06:54:20;12.01;82.42
68177;DHT22;56478;50.982;7.032;2023-04-29T06:56:46;12.06;82.64
68177;DHT22;56478;50.982;7.032;2023-04-29T06:59:13;11.99;82.22
68177;DHT22;56478;50.982;7.032;2023-04-29T07:01:39;11.97;82.34
68177;DHT22;56478;50.982;7.032;2023-04-29T07:04:05;11.95;82.26
68177;DHT22;56478;50.982;7.032;2023-04-29T07:06:32;12.06;82.42
68177;DHT22;56478;50.982;7.032;2023-04-29T07:09:01;12.04;81.77
68177;DHT22;56478;50.982;7.032;2023-04-29T07:11:39;12.11;81.24
68177;DHT22;56478;50.982;7.032;2023-04-29T07:14:26;12.04;81.93
68177;DHT22;56478;50.982;7.032;2023-04-29T07:17:01;12.04;81.91
68177;DHT22;56478;50.982;7.032;2023-04-29T07:22:45;12.11;81.70
68177;DHT22;56478;50.982;7.032;2023-04-29T07:25:22;12.05;81.52
68177;DHT22;56478;50.982;7.032;2023-04-29T07:28:07;12.18;81.20
68177;DHT22;56478;50.982;7.032;2023-04-29T07:31:11;12.22;81.70
68177;DHT22;56478;50.982;7.032;2023-04-29T07:33:47;12.29;81.84
68177;DHT22;56478;50.982;7.032;2023-04-29T07:36:56;12.40;80.90
68177;DHT22;56478;50.982;7.032;2023-04-29T07:39:30;12.44;80.18
68177;DHT22;56478;50.982;7.032;2023-04-29T07:42:00;12.34;80.91
68177;DHT22;56478;50.982;7.032;2023-04-29T07:44:32;12.40;80.27
68177;DHT22;56478;50.982;7.032;2023-04-29T07:47:22;12.40;80.44
68177;DHT22;56478;50.982;7.032;2023-04-29T07:50:33;12.47;80.00
68177;DHT22;56478;50.982;7.032;2023-04-29T07:52:43;12.50;80.29
68177;DHT22;56478;50.982;7.032;2023-04-29T07:55:14;12.49;81.08
68177;DHT22;56478;50.982;7.032;2023-04-29T07:57:40;12.61;79.87
68177;DHT22;56478;50.982;7.032;2023-04-29T08:08:05;12.69;79.86
68177;DHT22;56478;50.982;7.032;2023-04-29T08:10:32;12.69;79.37
68177;DHT22;56478;50.982;7.032;2023-04-29T08:13:00;12.60;79.76
68177;DHT22;56478;50.982;7.032;2023-04-29T08:19:06;12.77;79.64
68177;DHT22;56478;50.982;7.032;2023-04-29T08:21:46;12.77;78.83
68177;DHT22;56478;50.982;7.032;2023-04-29T08:24:15;12.69;78.87
68177;DHT22;56478;50.982;7.032;2023-04-29T08:26:41;12.81;78.42
68177;DHT22;56478;50.982;7.032;2023-04-29T08:29:30;12.99;78.14
68177;DHT22;56478;50.982;7.032;2023-04-29T08:35:07;13.39;75.70
68177;DHT22;56478;50.982;7.032;2023-04-29T08:38:25;13.26;76.11
68177;DHT22;56478;50.982;7.032;2023-04-29T08:40:50;13.42;75.54
68177;DHT22;56478;50.982;7.032;2023-04-29T08:43:26;13.42;75.15
68177;DHT22;56478;50.982;7.032;2023-04-29T08:45:59;13.50;74.81
68177;DHT22;56478;50.982;7.032;2023-04-29T08:48:28;13.47;75.44
68177;DHT22;56478;50.982;7.032;2023-04-29T08:50:54;13.53;73.62
68177;DHT22;56478;50.982;7.032;2023-04-29T08:53:22;13.48;73.89
68177;DHT22;56478;50.982;7.032;2023-04-29T08:55:53;13.54;74.69
68177;DHT22;56478;50.982;7.032;2023-04-29T08:58:21;13.57;73.37
68177;DHT22;56478;50.982;7.032;2023-04-29T09:00:47;13.54;73.82
68177;DHT22;56478;50.982;7.032;2023-04-29T09:03:43;13.47;74.86
68177;DHT22;56478;50.982;7.032;2023-04-29T09:06:17;13.26;74.64
68177;DHT22;56478;50.982;7.032;2023-04-29T09:08:44;13.24;74.80
68177;DHT22;56478;50.982;7.032;2023-04-29T09:11:10;13.27;74.78
68177;DHT22;56478;50.982;7.032;2023-04-29T09:13:37;13.27;74.62
68177;DHT22;56478;50.982;7.032;2023-04-29T09:16:04;13.29;74.34
68177;DHT22;56478;50.982;7.032;2023-04-29T09:18:50;13.19;74.73
68177;DHT22;56478;50.982;7.032;2023-04-29T09:21:27;13.15;74.83
68177;DHT22;56478;50.982;7.032;2023-04-29T09:23:58;12.99;75.98
68177;DHT22;56478;50.982;7.032;2023-04-29T09:26:25;12.94;75.73
68177;DHT22;56478;50.982;7.032;2023-04-29T09:29:11;12.96;75.84
68177;DHT22;56478;50.982;7.032;2023-04-29T09:31:41;12.95;76.01
68177;DHT22;56478;50.982;7.032;2023-04-29T09:34:07;12.98;76.26
68177;DHT22;56478;50.982;7.032;2023-04-29T09:36:38;12.92;76.08
68177;DHT22;56478;50.982;7.032;2023-04-29T09:39:08;13.12;75.37
68177;DHT22;56478;50.982;7.032;2023-04-29T09:44:25;13.22;75.16
68177;DHT22;56478;50.982;7.032;2023-04-29T09:49:26;13.15;75.19
68177;DHT22;56478;50.982;7.032;2023-04-29T09:51:57;13.24;75.07
68177;DHT22;56478;50.982;7.032;2023-04-29T09:54:26;13.33;74.86
68177;DHT22;56478;50.982;7.032;2023-04-29T09:56:54;13.39;74.92
68177;DHT22;56478;50.982;7.032;2023-04-29T09:59:27;13.37;75.06
68177;DHT22;56478;50.982;7.032;2023-04-29T10:01:55;13.46;74.43
68177;DHT22;56478;50.982;7.032;2023-04-29T10:04:23;13.40;74.64
68177;DHT22;56478;50.982;7.032;2023-04-29T10:06:50;13.43;74.48
68177;DHT22;56478;50.982;7.032;2023-04-29T10:09:18;13.36;75.16
68177;DHT22;56478;50.982;7.032;2023-04-29T10:11:45;13.32;75.84
68177;DHT22;56478;50.982;7.032;2023-04-29T10:14:16;13.29;75.93
68177;DHT22;56478;50.982;7.032;2023-04-29T10:16:49;13.43;75.16
68177;DHT22;56478;50.982;7.032;2023-04-29T10:19:33;13.29;75.80
68177;DHT22;56478;50.982;7.032;2023-04-29T10:22:08;13.33;75.75
68177;DHT22;56478;50.982;7.032;2023-04-29T10:24:37;13.24;76.58
68177;DHT22;56478;50.982;7.032;2023-04-29T10:27:07;13.20;76.52
68177;DHT22;56478;50.982;7.032;2023-04-29T10:29:37;13.24;76.50
68177;DHT22;56478;50.982;7.032;2023-04-29T10:32:06;13.32;75.82
68177;DHT22;56478;50.982;7.032;2023-04-29T10:34:36;13.24;75.70
68177;DHT22;56478;50.982;7.032;2023-04-29T10:37:02;13.24;76.58
68177;DHT22;56478;50.982;7.032;2023-04-29T10:43:01;13.33;75.86
68177;DHT22;56478;50.982;7.032;2023-04-29T10:45:30;13.27;76.50
68177;DHT22;56478;50.982;7.032;2023-04-29T10:50:34;13.27;76.68
68177;DHT22;56478;50.982;7.032;2023-04-29T10:53:04;13.26;76.78
68177;DHT22;56478;50.982;7.032;2023-04-29T10:55:30;13.43;76.08
68177;DHT22;56478;50.982;7.032;2023-04-29T10:57:56;13.29;76.40
68177;DHT22;56478;50.982;7.032;2023-04-29T11:00:26;13.42;75.65
68177;DHT22;56478;50.982;7.032;2023-04-29T11:02:58;13.32;76.59
68177;DHT22;56478;50.982;7.032;2023-04-29T11:05:35;13.26;76.14
68177;DHT22;56478;50.982;7.032;2023-04-29T11:08:22;13.22;76.11
68177;DHT22;56478;50.982;7.032;2023-04-29T11:10:52;13.19;77.01
68177;DHT22;56478;50.982;7.032;2023-04-29T11:13:29;13.23;76.57
68177;DHT22;56478;50.982;7.032;2023-04-29T11:16:09;13.13;76.67
68177;DHT22;56478;50.982;7.032;2023-04-29T11:18:36;13.16;76.36
68177;DHT22;56478;50.982;7.032;2023-04-29T11:21:21;13.05;76.62
68177;DHT22;56478;50.982;7.032;2023-04-29T11:23:50;13.08;76.88
68177;DHT22;56478;50.982;7.032;2023-04-29T11:26:19;12.94;77.30
68177;DHT22;56478;50.982;7.032;2023-04-29T11:28:46;12.91;77.76
68177;DHT22;56478;50.982;7.032;2023-04-29T11:31:16;12.96;77.30
68177;DHT22;56478;50.982;7.032;2023-04-29T11:33:41;12.94;77.22
68177;DHT22;56478;50.982;7.032;2023-04-29T11:36:10;13.06;76.73
68177;DHT22;56478;50.982;7.032;2023-04-29T11:38:39;12.95;77.60
68177;DHT22;56478;50.982;7.032;2023-04-29T11:41:06;12.91;77.86
68177;DHT22;56478;50.982;7.032;2023-04-29T11:43:32;13.01;76.78
68177;DHT22;56478;50.982;7.032;2023-04-29T11:45:57;13.09;77.56
68177;DHT22;56478;50.982;7.032;2023-04-29T11:48:24;13.27;76.44
68177;DHT22;56478;50.982;7.032;2023-04-29T11:50:56;13.33;76.55
68177;DHT22;56478;50.982;7.032;2023-04-29T11:53:27;13.35;76.40
68177;DHT22;56478;50.982;7.032;2023-04-29T11:55:53;13.43;75.86
68177;DHT22;56478;50.982;7.032;2023-04-29T11:58:20;13.53;75.63
68177;DHT22;56478;50.982;7.032;2023-04-29T12:00:47;13.48;76.46
68177;DHT22;56478;50.982;7.032;2023-04-29T12:03:19;13.48;75.82
68177;DHT22;56478;50.982;7.032;2023-04-29T12:05:46;13.58;74.99
68177;DHT22;56478;50.982;7.032;2023-04-29T12:08:13;13.58;75.22
68177;DHT22;56478;50.982;7.032;2023-04-29T12:10:40;13.55;75.63
68177;DHT22;56478;50.982;7.032;2023-04-29T12:13:10;13.48;76.49
68177;DHT22;56478;50.982;7.032;2023-04-29T12:15:38;13.58;75.80
68177;DHT22;56478;50.982;7.032;2023-04-29T12:18:04;13.54;75.34
68177;DHT22;56478;50.982;7.032;2023-04-29T12:20:30;13.54;75.42
68177;DHT22;56478;50.982;7.032;2023-04-29T12:23:10;13.60;75.31
68177;DHT22;56478;50.982;7.032;2023-04-29T12:25:38;13.60;75.57
68177;DHT22;56478;50.982;7.032;2023-04-29T12:28:14;13.75;74.77
68177;DHT22;56478;50.982;7.032;2023-04-29T12:30:43;13.74;75.06
68177;DHT22;56478;50.982;7.032;2023-04-29T12:33:28;13.88;74.93
68177;DHT22;56478;50.982;7.032;2023-04-29T12:35:56;13.86;74.81
68177;DHT22;56478;50.982;7.032;2023-04-29T12:38:26;14.05;74.31
68177;DHT22;56478;50.982;7.032;2023-04-29T12:40:58;14.34;73.09
68177;DHT22;56478;50.982;7.032;2023-04-29T12:43:27;14.40;72.94
68177;DHT22;56478;50.982;7.032;2023-04-29T12:46:08;14.56;72.37
68177;DHT22;56478;50.982;7.032;2023-04-29T12:48:39;14.71;72.29
68177;DHT22;56478;50.982;7.032;2023-04-29T12:51:09;15.03;70.94
68177;DHT22;56478;50.982;7.032;2023-04-29T12:53:36;15.20;70.48
68177;DHT22;56478;50.982;7.032;2023-04-29T12:56:03;15.62;68.19
68177;DHT22;56478;50.982;7.032;2023-04-29T12:58:32;15.79;67.23
68177;DHT22;56478;50.982;7.032;2023-04-29T13:00:59;15.61;67.73
68177;DHT22;56478;50.982;7.032;2023-04-29T13:03:28;15.92;65.89
68177;DHT22;56478;50.982;7.032;2023-04-29T13:05:54;15.69;66.40
68177;DHT22;56478;50.982;7.032;2023-04-29T13:08:20;16.00;65.76
68177;DHT22;56478;50.982;7.032;2023-04-29T13:10:48;16.12;66.31
68177;DHT22;56478;50.982;7.032;2023-04-29T13:13:19;16.27;64.78
68177;DHT22;56478;50.982;7.032;2023-04-29T13:15:48;16.27;65.60
68177;DHT22;56478;50.982;7.032;2023-04-29T13:18:14;16.16;66.43
68177;DHT22;56478;50.982;7.032;2023-04-29T13:20:49;16.38;65.45
68177;DHT22;56478;50.982;7.032;2023-04-29T13:23:15;16.61;64.95
68177;DHT22;56478;50.982;7.032;2023-04-29T13:25:41;16.47;65.70
68177;DHT22;56478;50.982;7.032;2023-04-29T13:28:07;16.52;65.65
68177;DHT22;56478;50.982;7.032;2023-04-29T13:30:36;16.43;65.52
68177;DHT22;56478;50.982;7.032;2023-04-29T13:33:02;16.45;65.96
68177;DHT22;56478;50.982;7.032;2023-04-29T13:35:30;16.68;64.05
68177;DHT22;56478;50.982;7.032;2023-04-29T13:37:59;16.65;64.67
68177;DHT22;56478;50.982;7.032;2023-04-29T13:40:28;16.50;65.48
68177;DHT22;56478;50.982;7.032;2023-04-29T13:42:54;16.61;64.53
68177;DHT22;56478;50.982;7.032;2023-04-29T13:45:25;16.52;64.25
68177;DHT22;56478;50.982;7.032;2023-04-29T13:47:54;16.82;63.07
68177;DHT22;56478;50.982;7.032;2023-04-29T13:50:20;17.02;62.19
68177;DHT22;56478;50.982;7.032;2023-04-29T13:52:49;17.07;61.57
68177;DHT22;56478;50.982;7.032;2023-04-29T13:55:21;16.78;62.50
68177;DHT22;56478;50.982;7.032;2023-04-29T13:57:47;16.80;62.64
68177;DHT22;56478;50.982;7.032;2023-04-29T14:00:16;16.57;63.43
68177;DHT22;56478;50.982;7.032;2023-04-29T14:02:42;16.34;64.10
68177;DHT22;56478;50.982;7.032;2023-04-29T14:05:08;16.06;65.96
68177;DHT22;56478;50.982;7.032;2023-04-29T14:07:35;16.05;66.43
68177;DHT22;56478;50.982;7.032;2023-04-29T14:10:00;15.88;66.42
68177;DHT22;56478;50.982;7.032;2023-04-29T14:12:26;15.81;66.84
68177;DHT22;56478;50.982;7.032;2023-04-29T14:14:55;15.86;65.82
68177;DHT22;56478;50.982;7.032;2023-04-29T14:17:21;15.77;66.65
68177;DHT22;56478;50.982;7.032;2023-04-29T14:19:47;15.71;67.07
68177;DHT22;56478;50.982;7.032;2023-04-29T14:22:13;15.64;66.70
68177;DHT22;56478;50.982;7.032;2023-04-29T14:24:40;15.62;65.97
68177;DHT22;56478;50.982;7.032;2023-04-29T14:27:08;15.55;65.84
68177;DHT22;56478;50.982;7.032;2023-04-29T14:29:34;15.47;67.09
68177;DHT22;56478;50.982;7.032;2023-04-29T14:32:03;15.43;67.21
68177;DHT22;56478;50.982;7.032;2023-04-29T14:34:32;15.57;65.54
68177;DHT22;56478;50.982;7.032;2023-04-29T14:36:58;15.58;68.45
68177;DHT22;56478;50.982;7.032;2023-04-29T14:39:27;15.66;66.32
68177;DHT22;56478;50.982;7.032;2023-04-29T14:41:53;15.69;66.20
68177;DHT22;56478;50.982;7.032;2023-04-29T14:44:18;15.72;66.86
68177;DHT22;56478;50.982;7.032;2023-04-29T14:46:44;15.72;66.56
68177;DHT22;56478;50.982;7.032;2023-04-29T14:49:13;15.81;66.08
68177;DHT22;56478;50.982;7.032;2023-04-29T14:51:44;15.92;66.91
68177;DHT22;56478;50.982;7.032;2023-04-29T14:54:10;15.82;67.12
68177;DHT22;56478;50.982;7.032;2023-04-29T14:56:36;15.96;65.35
68177;DHT22;56478;50.982;7.032;2023-04-29T14:59:02;15.99;64.15
68177;DHT22;56478;50.982;7.032;2023-04-29T15:01:28;16.06;63.45
68177;DHT22;56478;50.982;7.032;2023-04-29T15:03:57;16.21;60.81
68177;DHT22;56478;50.982;7.032;2023-04-29T15:06:26;16.14;60.71
68177;DHT22;56478;50.982;7.032;2023-04-29T15:08:52;16.13;61.65
68177;DHT22;56478;50.982;7.032;2023-04-29T15:11:18;16.12;62.54
68177;DHT22;56478;50.982;7.032;2023-04-29T15:13:47;16.06;63.44
68177;DHT22;56478;50.982;7.032;2023-04-29T15:16:16;16.00;64.34
68177;DHT22;56478;50.982;7.032;2023-04-29T15:18:45;15.88;66.63
68177;DHT22;56478;50.982;7.032;2023-04-29T15:21:11;15.86;66.33
68177;DHT22;56478;50.982;7.032;2023-04-29T15:23:37;15.86;67.40
68177;DHT22;56478;50.982;7.032;2023-04-29T15:26:04;15.81;66.51
68177;DHT22;56478;50.982;7.032;2023-04-29T15:28:31;15.78;65.43
68177;DHT22;56478;50.982;7.032;2023-04-29T15:31:00;15.81;65.60
68177;DHT22;56478;50.982;7.032;2023-04-29T15:33:31;15.79;65.10
68177;DHT22;56478;50.982;7.032;2023-04-29T15:35:57;15.83;67.46
68177;DHT22;56478;50.982;7.032;2023-04-29T15:38:23;15.89;64.86
68177;DHT22;56478;50.982;7.032;2023-04-29T15:40:50;15.75;64.18
68177;DHT22;56478;50.982;7.032;2023-04-29T15:43:16;15.68;68.64
68177;DHT22;56478;50.982;7.032;2023-04-29T15:45:42;15.59;65.41
68177;DHT22;56478;50.982;7.032;2023-04-29T15:48:09;15.65;64.70
68177;DHT22;56478;50.982;7.032;2023-04-29T15:50:35;15.72;64.36
68177;DHT22;56478;50.982;7.032;2023-04-29T15:53:00;15.66;65.17
68177;DHT22;56478;50.982;7.032;2023-04-29T15:55:26;15.62;65.38
68177;DHT22;56478;50.982;7.032;2023-04-29T15:57:54;15.62;67.03
68177;DHT22;56478;50.982;7.032;2023-04-29T16:00:20;15.61;68.41
68177;DHT22;56478;50.982;7.032;2023-04-29T16:02:47;15.53;66.78
68177;DHT22;56478;50.982;7.032;2023-04-29T16:05:15;15.54;67.93
68177;DHT22;56478;50.982;7.032;2023-04-29T16:07:41;15.54;67.75
68177;DHT22;56478;50.982;7.032;2023-04-29T16:10:07;15.48;68.30
68177;DHT22;56478;50.982;7.032;2023-04-29T16:12:36;15.47;68.68
68177;DHT22;56478;50.982;7.032;2023-04-29T16:15:06;15.48;67.19
68177;DHT22;56478;50.982;7.032;2023-04-29T16:17:33;15.50;66.90